sensor_id;sensor_type;location;lat;lon;timestamp;temperature;humidity
9760;DHT22;4919;48.792;9.202;2023-02-08T00:01:13;-5.10;99.90
9760;DHT22;4919;48.792;9.202;2023-02-08T00:03:58;-5.10;99.90
9760;DHT22;4919;48.792;9.202;2023-02-08T00:06:43;-5.10;99.90
9760;DHT22;4919;48.792;9.202;2023-02-08T00:09:28;-5.10;99.90
9760;DHT22;4919;48.792;9.202;2023-02-08T00:12:13;-5.10;99.90
9760;DHT22;4919;48.792;9.202;2023-02-08T00:14:58;-5.10;99.90
9760;DHT22;4919;48.792;9.202;2023-02-08T00:17:43;-5.10;99.90
9760;DHT22;4919;48.792;9.202;2023-02-08T00:20:28;-5.10;99.90
9760;DHT22;4919;48.792;9.202;2023-02-08T00:23:14;-5.10;99.90
9760;DHT22;4919;48.792;9.202;2023-02-08T00:25:58;-5.20;99.90
9760;DHT22;4919;48.792;9.202;2023-02-08T00:28:43;-5.20;99.90
9760;DHT22;4919;48.792;9.202;2023-02-08T00:31:28;-5.20;99.90
9760;DHT22;4919;48.792;9.202;2023-02-08T00:34:13;-5.30;99.90
9760;DHT22;4919;48.792;9.202;2023-02-08T00:36:58;-5.30;99.90
9760;DHT22;4919;48.792;9.202;2023-02-08T00:39:43;-5.30;99.90
9760;DHT22;4919;48.792;9.202;2023-02-08T00:42:28;-5.30;99.90
9760;DHT22;4919;48.792;9.202;2023-02-08T00:45:13;-5.30;99.90
9760;DHT22;4919;48.792;9.202;2023-02-08T00:47:57;-5.30;99.90
9760;DHT22;4919;48.792;9.202;2023-02-08T00:50:42;-5.30;99.90
9760;DHT22;4919;48.792;9.202;2023-02-08T00:53:27;-5.40;99.90
9760;DHT22;4919;48.792;9.202;2023-02-08T00:56:13;-5.40;99.90
9760;DHT22;4919;48.792;9.202;2023-02-08T00:58:58;-5.40;99.90
9760;DHT22;4919;48.792;9.202;2023-02-08T01:01:43;-5.40;99.90
9760;DHT22;4919;48.792;9.202;2023-02-08T01:04:28;-5.40;99.90
9760;DHT22;4919;48.792;9.202;2023-02-08T01:07:13;-5.40;99.90
9760;DHT22;4919;48.792;9.202;2023-02-08T01:09:58;-5.50;99.90
9760;DHT22;4919;48.792;9.202;2023-02-08T01:12:42;-5.40;99.90
9760;DHT22;4919;48.792;9.202;2023-02-08T01:15:27;-5.50;99.90
9760;DHT22;4919;48.792;9.202;2023-02-08T01:18:12;-5.40;99.90
9760;DHT22;4919;48.792;9.202;2023-02-08T01:21:06;-5.50;99.90
9760;DHT22;4919;48.792;9.202;2023-02-08T01:23:51;-5.60;99.90
9760;DHT22;4919;48.792;9.202;2023-02-08T01:26:36;-5.70;99.90
9760;DHT22;4919;48.792;9.202;2023-02-08T01:29:21;-5.60;99.90
9760;DHT22;4919;48.792;9.202;2023-02-08T01:32:06;-5.60;99.90
9760;DHT22;4919;48.792;9.202;2023-02-08T01:34:59;-5.70;99.90
9760;DHT22;4919;48.792;9.202;2023-02-08T01:37:44;-5.70;99.90
9760;DHT22;4919;48.792;9.202;2023-02-08T01:40:29;-5.70;99.90
9760;DHT22;4919;48.792;9.202;2023-02-08T01:43:56;-5.70;99.90
9760;DHT22;4919;48.792;9.202;2023-02-08T01:46:43;-5.80;99.90
9760;DHT22;4919;48.792;9.202;2023-02-08T01:49:34;-5.80;99.90
9760;DHT22;4919;48.792;9.202;2023-02-08T01:52:24;-5.80;99.90
9760;DHT22;4919;48.792;9.202;2023-02-08T01:55:41;-5.80;99.90
9760;DHT22;4919;48.792;9.202;2023-02-08T01:58:30;-5.80;99.90
9760;DHT22;4919;48.792;9.202;2023-02-08T02:01:16;-5.80;99.90
9760;DHT22;4919;48.792;9.202;2023-02-08T02:04:04;-5.80;99.90
9760;DHT22;4919;48.792;9.202;2023-02-08T02:06:54;-5.70;99.90
9760;DHT22;4919;48.792;9.202;2023-02-08T02:09:57;-5.70;99.90
9760;DHT22;4919;48.792;9.202;2023-02-08T02:12:47;-5.70;99.90
9760;DHT22;4919;48.792;9.202;2023-02-08T02:15:33;-5.70;99.90
9760;DHT22;4919;48.792;9.202;2023-02-08T02:18:26;-5.80;99.90
9760;DHT22;4919;48.792;9.202;2023-02-08T02:27:23;-5.70;99.90
9760;DHT22;4919;48.792;9.202;2023-02-08T02:30:30;-5.80;99.90
9760;DHT22;4919;48.792;9.202;2023-02-08T02:42:11;-5.40;99.90
9760;DHT22;4919;48.792;9.202;2023-02-08T02:45:09;-5.40;99.90
9760;DHT22;4919;48.792;9.202;2023-02-08T02:48:11;-5.30;99.90
9760;DHT22;4919;48.792;9.202;2023-02-08T02:51:11;-5.30;99.90
9760;DHT22;4919;48.792;9.202;2023-02-08T02:54:18;-5.30;99.90
9760;DHT22;4919;48.792;9.202;2023-02-08T02:57:07;-5.30;99.90
9760;DHT22;4919;48.792;9.202;2023-02-08T02:59:53;-5.30;99.90
9760;DHT22;4919;48.792;9.202;2023-02-08T03:02:38;-5.30;99.90
9760;DHT22;4919;48.792;9.202;2023-02-08T03:05:24;-5.40;99.90
9760;DHT22;4919;48.792;9.202;2023-02-08T03:08:45;-5.50;99.90
9760;DHT22;4919;48.792;9.202;2023-02-08T03:11:31;-5.50;99.90
9760;DHT22;4919;48.792;9.202;2023-02-08T03:14:37;-5.50;99.90
9760;DHT22;4919;48.792;9.202;2023-02-08T03:21:11;-5.50;99.90
9760;DHT22;4919;48.792;9.202;2023-02-08T03:26:47;-5.60;99.90
9760;DHT22;4919;48.792;9.202;2023-02-08T03:32:34;-5.70;99.90
9760;DHT22;4919;48.792;9.202;2023-02-08T03:38:19;-5.90;99.90
9760;DHT22;4919;48.792;9.202;2023-02-08T03:41:08;-5.90;99.90
9760;DHT22;4919;48.792;9.202;2023-02-08T03:46:54;-6.00;99.90
9760;DHT22;4919;48.792;9.202;2023-02-08T03:49:42;-6.00;99.90
9760;DHT22;4919;48.792;9.202;2023-02-08T03:52:29;-6.10;99.90
9760;DHT22;4919;48.792;9.202;2023-02-08T03:55:24;-6.10;99.90
9760;DHT22;4919;48.792;9.202;2023-02-08T03:58:17;-6.10;99.90
9760;DHT22;4919;48.792;9.202;2023-02-08T04:01:11;-6.00;99.90
9760;DHT22;4919;48.792;9.202;2023-02-08T04:03:58;-6.00;99.90
9760;DHT22;4919;48.792;9.202;2023-02-08T04:06:43;-6.00;99.90
9760;DHT22;4919;48.792;9.202;2023-02-08T04:09:28;-6.00;99.90
9760;DHT22;4919;48.792;9.202;2023-02-08T04:12:13;-6.00;99.90
9760;DHT22;4919;48.792;9.202;2023-02-08T04:14:58;-6.00;99.90
9760;DHT22;4919;48.792;9.202;2023-02-08T04:17:43;-6.00;99.90
9760;DHT22;4919;48.792;9.202;2023-02-08T04:20:28;-5.90;99.90
9760;DHT22;4919;48.792;9.202;2023-02-08T04:23:12;-5.90;99.90
9760;DHT22;4919;48.792;9.202;2023-02-08T04:25:57;-5.90;99.90
9760;DHT22;4919;48.792;9.202;2023-02-08T04:28:42;-5.80;99.90
9760;DHT22;4919;48.792;9.202;2023-02-08T04:31:27;-5.90;99.90
9760;DHT22;4919;48.792;9.202;2023-02-08T04:34:13;-5.90;99.90
9760;DHT22;4919;48.792;9.202;2023-02-08T04:36:57;-6.00;99.90
9760;DHT22;4919;48.792;9.202;2023-02-08T04:39:43;-6.10;99.90
9760;DHT22;4919;48.792;9.202;2023-02-08T04:42:28;-6.10;99.90
9760;DHT22;4919;48.792;9.202;2023-02-08T04:45:12;-6.10;99.90
9760;DHT22;4919;48.792;9.202;2023-02-08T04:48:00;-6.20;99.90
9760;DHT22;4919;48.792;9.202;2023-02-08T04:50:45;-6.20;99.90
9760;DHT22;4919;48.792;9.202;2023-02-08T04:53:30;-6.20;99.90
9760;DHT22;4919;48.792;9.202;2023-02-08T04:56:14;-6.20;99.90
9760;DHT22;4919;48.792;9.202;2023-02-08T04:59:00;-6.30;99.90
9760;DHT22;4919;48.792;9.202;2023-02-08T05:01:44;-6.30;99.90
9760;DHT22;4919;48.792;9.202;2023-02-08T05:04:29;-6.30;99.90
9760;DHT22;4919;48.792;9.202;2023-02-08T05:07:14;-6.30;99.90
9760;DHT22;4919;48.792;9.202;2023-02-08T05:09:59;-6.30;99.90
9760;DHT22;4919;48.792;9.202;2023-02-08T05:12:44;-6.30;99.90
9760;DHT22;4919;48.792;9.202;2023-02-08T05:15:29;-6.30;99.90
9760;DHT22;4919;48.792;9.202;2023-02-08T05:18:14;-6.40;99.90
9760;DHT22;4919;48.792;9.202;2023-02-08T05:20:59;-6.40;99.90
9760;DHT22;4919;48.792;9.202;2023-02-08T05:23:44;-6.40;99.90
9760;DHT22;4919;48.792;9.202;2023-02-08T05:26:29;-6.40;99.90
9760;DHT22;4919;48.792;9.202;2023-02-08T05:29:14;-6.40;99.90
9760;DHT22;4919;48.792;9.202;2023-02-08T05:31:59;-6.40;99.90
9760;DHT22;4919;48.792;9.202;2023-02-08T05:34:44;-6.40;99.90
9760;DHT22;4919;48.792;9.202;2023-02-08T05:37:29;-6.40;99.90
9760;DHT22;4919;48.792;9.202;2023-02-08T05:40:16;-6.30;99.90
9760;DHT22;4919;48.792;9.202;2023-02-08T05:43:01;-6.30;99.90
9760;DHT22;4919;48.792;9.202;2023-02-08T05:45:48;-6.40;99.90
9760;DHT22;4919;48.792;9.202;2023-02-08T05:48:33;-6.40;99.90
9760;DHT22;4919;48.792;9.202;2023-02-08T05:51:18;-6.40;99.90
9760;DHT22;4919;48.792;9.202;2023-02-08T05:54:03;-6.40;99.90
9760;DHT22;4919;48.792;9.202;2023-02-08T05:56:48;-6.30;99.90
9760;DHT22;4919;48.792;9.202;2023-02-08T05:59:33;-6.20;99.90
9760;DHT22;4919;48.792;9.202;2023-02-08T06:02:21;-6.20;99.90
9760;DHT22;4919;48.792;9.202;2023-02-08T06:05:06;-6.20;99.90
9760;DHT22;4919;48.792;9.202;2023-02-08T06:07:51;-6.10;99.90
9760;DHT22;4919;48.792;9.202;2023-02-08T06:10:36;-6.10;99.90
9760;DHT22;4919;48.792;9.202;2023-02-08T06:13:20;-6.20;99.90
9760;DHT22;4919;48.792;9.202;2023-02-08T06:16:06;-6.30;99.90
9760;DHT22;4919;48.792;9.202;2023-02-08T06:18:50;-6.30;99.90
9760;DHT22;4919;48.792;9.202;2023-02-08T06:21:35;-6.30;99.90
9760;DHT22;4919;48.792;9.202;2023-02-08T06:24:20;-6.30;99.90
9760;DHT22;4919;48.792;9.202;2023-02-08T06:27:05;-6.20;99.90
9760;DHT22;4919;48.792;9.202;2023-02-08T06:29:50;-6.20;99.90
9760;DHT22;4919;48.792;9.202;2023-02-08T06:32:34;-6.20;99.90
9760;DHT22;4919;48.792;9.202;2023-02-08T06:35:20;-6.20;99.90
9760;DHT22;4919;48.792;9.202;2023-02-08T06:38:04;-6.30;99.90
9760;DHT22;4919;48.792;9.202;2023-02-08T06:40:49;-6.20;99.90
9760;DHT22;4919;48.792;9.202;2023-02-08T06:43:34;-6.30;99.90
9760;DHT22;4919;48.792;9.202;2023-02-08T06:46:19;-6.30;99.90
9760;DHT22;4919;48.792;9.202;2023-02-08T06:49:04;-6.30;99.90
9760;DHT22;4919;48.792;9.202;2023-02-08T06:51:49;-6.30;99.90
9760;DHT22;4919;48.792;9.202;2023-02-08T06:54:34;-6.30;99.90
9760;DHT22;4919;48.792;9.202;2023-02-08T06:57:18;-6.20;99.90
9760;DHT22;4919;48.792;9.202;2023-02-08T07:00:04;-6.20;99.90
9760;DHT22;4919;48.792;9.202;2023-02-08T07:02:49;-6.20;99.90
9760;DHT22;4919;48.792;9.202;2023-02-08T07:05:34;-6.20;99.90
9760;DHT22;4919;48.792;9.202;2023-02-08T07:08:19;-6.20;99.90
9760;DHT22;4919;48.792;9.202;2023-02-08T07:11:09;-6.10;99.90
9760;DHT22;4919;48.792;9.202;2023-02-08T07:13:54;-6.10;99.90
9760;DHT22;4919;48.792;9.202;2023-02-08T07:16:39;-6.00;99.90
9760;DHT22;4919;48.792;9.202;2023-02-08T07:19:24;-5.80;99.90
9760;DHT22;4919;48.792;9.202;2023-02-08T07:22:09;-5.80;99.90
9760;DHT22;4919;48.792;9.202;2023-02-08T07:24:53;-5.60;99.90
9760;DHT22;4919;48.792;9.202;2023-02-08T07:27:38;-5.50;99.90
9760;DHT22;4919;48.792;9.202;2023-02-08T07:30:23;-5.40;99.90
9760;DHT22;4919;48.792;9.202;2023-02-08T07:33:08;-5.20;99.90
9760;DHT22;4919;48.792;9.202;2023-02-08T07:35:53;-5.10;99.90
9760;DHT22;4919;48.792;9.202;2023-02-08T07:38:38;-5.00;99.90
9760;DHT22;4919;48.792;9.202;2023-02-08T07:41:23;-4.80;99.90
9760;DHT22;4919;48.792;9.202;2023-02-08T07:44:08;-4.70;99.90
9760;DHT22;4919;48.792;9.202;2023-02-08T07:46:53;-4.60;99.90
9760;DHT22;4919;48.792;9.202;2023-02-08T07:49:38;-4.50;99.90
9760;DHT22;4919;48.792;9.202;2023-02-08T07:52:23;-4.40;99.90
9760;DHT22;4919;48.792;9.202;2023-02-08T07:55:08;-4.30;99.90
9760;DHT22;4919;48.792;9.202;2023-02-08T07:57:54;-4.20;99.90
9760;DHT22;4919;48.792;9.202;2023-02-08T08:00:39;-4.10;99.90
9760;DHT22;4919;48.792;9.202;2023-02-08T08:03:24;-4.00;99.90
9760;DHT22;4919;48.792;9.202;2023-02-08T08:06:09;-3.90;99.90
9760;DHT22;4919;48.792;9.202;2023-02-08T08:08:54;-3.80;99.90
9760;DHT22;4919;48.792;9.202;2023-02-08T08:11:39;-3.70;99.90
9760;DHT22;4919;48.792;9.202;2023-02-08T08:14:24;-3.60;99.90
9760;DHT22;4919;48.792;9.202;2023-02-08T08:17:08;-3.50;99.90
9760;DHT22;4919;48.792;9.202;2023-02-08T08:19:53;-3.40;99.90
9760;DHT22;4919;48.792;9.202;2023-02-08T08:22:38;-3.30;99.90
9760;DHT22;4919;48.792;9.202;2023-02-08T08:25:23;-3.20;99.90
9760;DHT22;4919;48.792;9.202;2023-02-08T08:28:08;-3.10;99.90
9760;DHT22;4919;48.792;9.202;2023-02-08T08:30:53;-3.00;99.90
9760;DHT22;4919;48.792;9.202;2023-02-08T08:33:38;-2.90;99.90
9760;DHT22;4919;48.792;9.202;2023-02-08T08:36:23;-2.90;99.90
9760;DHT22;4919;48.792;9.202;2023-02-08T08:39:07;-2.80;99.90
9760;DHT22;4919;48.792;9.202;2023-02-08T08:42:02;-2.70;99.90
9760;DHT22;4919;48.792;9.202;2023-02-08T08:44:47;-2.60;99.90
9760;DHT22;4919;48.792;9.202;2023-02-08T08:47:32;-2.50;99.90
9760;DHT22;4919;48.792;9.202;2023-02-08T08:50:17;-2.40;99.90
9760;DHT22;4919;48.792;9.202;2023-02-08T08:53:02;-2.50;99.90
9760;DHT22;4919;48.792;9.202;2023-02-08T08:55:47;-2.40;99.90
9760;DHT22;4919;48.792;9.202;2023-02-08T08:58:32;-2.30;99.90
9760;DHT22;4919;48.792;9.202;2023-02-08T09:01:17;-2.20;99.90
9760;DHT22;4919;48.792;9.202;2023-02-08T09:04:02;-2.00;99.90
9760;DHT22;4919;48.792;9.202;2023-02-08T09:06:51;-1.90;99.90
9760;DHT22;4919;48.792;9.202;2023-02-08T09:09:36;-1.80;99.90
9760;DHT22;4919;48.792;9.202;2023-02-08T09:12:21;-1.70;99.90
9760;DHT22;4919;48.792;9.202;2023-02-08T09:15:06;-1.60;99.90
9760;DHT22;4919;48.792;9.202;2023-02-08T09:17:51;-1.50;99.90
9760;DHT22;4919;48.792;9.202;2023-02-08T09:20:37;-1.40;99.90
9760;DHT22;4919;48.792;9.202;2023-02-08T09:23:22;-1.50;99.90
9760;DHT22;4919;48.792;9.202;2023-02-08T09:26:09;-1.30;99.90
9760;DHT22;4919;48.792;9.202;2023-02-08T09:28:55;-1.20;99.90
9760;DHT22;4919;48.792;9.202;2023-02-08T09:31:39;-0.90;99.90
9760;DHT22;4919;48.792;9.202;2023-02-08T09:34:24;-0.80;99.90
9760;DHT22;4919;48.792;9.202;2023-02-08T09:37:09;-0.70;99.90
9760;DHT22;4919;48.792;9.202;2023-02-08T09:39:54;-0.60;99.90
9760;DHT22;4919;48.792;9.202;2023-02-08T09:42:41;-0.30;99.90
9760;DHT22;4919;48.792;9.202;2023-02-08T09:45:43;-0.20;99.90
9760;DHT22;4919;48.792;9.202;2023-02-08T09:48:35;-0.30;99.90
9760;DHT22;4919;48.792;9.202;2023-02-08T09:51:25;-0.30;99.90
9760;DHT22;4919;48.792;9.202;2023-02-08T09:57:22;0.20;99.90
9760;DHT22;4919;48.792;9.202;2023-02-08T10:00:16;0.20;99.90
9760;DHT22;4919;48.792;9.202;2023-02-08T10:03:04;0.30;99.90
9760;DHT22;4919;48.792;9.202;2023-02-08T10:05:50;0.40;99.90
9760;DHT22;4919;48.792;9.202;2023-02-08T10:08:35;0.40;99.90
9760;DHT22;4919;48.792;9.202;2023-02-08T10:32:14;0.90;99.90
9760;DHT22;4919;48.792;9.202;2023-02-08T10:35:02;1.00;99.90
9760;DHT22;4919;48.792;9.202;2023-02-08T10:37:48;1.20;99.90
9760;DHT22;4919;48.792;9.202;2023-02-08T10:40:37;1.20;99.90
9760;DHT22;4919;48.792;9.202;2023-02-08T10:43:37;1.00;99.90
9760;DHT22;4919;48.792;9.202;2023-02-08T10:46:33;1.20;99.90
9760;DHT22;4919;48.792;9.202;2023-02-08T10:49:45;1.10;99.90
9760;DHT22;4919;48.792;9.202;2023-02-08T10:52:27;1.10;99.90
9760;DHT22;4919;48.792;9.202;2023-02-08T10:55:17;1.30;99.90
9760;DHT22;4919;48.792;9.202;2023-02-08T10:58:04;1.10;99.90
9760;DHT22;4919;48.792;9.202;2023-02-08T11:00:50;1.10;99.90
9760;DHT22;4919;48.792;9.202;2023-02-08T11:03:34;1.20;99.90
9760;DHT22;4919;48.792;9.202;2023-02-08T11:06:26;1.60;99.90
9760;DHT22;4919;48.792;9.202;2023-02-08T11:09:25;1.70;99.90
9760;DHT22;4919;48.792;9.202;2023-02-08T11:12:18;1.80;99.90
9760;DHT22;4919;48.792;9.202;2023-02-08T11:15:04;1.50;99.90
9760;DHT22;4919;48.792;9.202;2023-02-08T11:17:53;1.70;99.90
9760;DHT22;4919;48.792;9.202;2023-02-08T11:20:39;1.80;99.90
9760;DHT22;4919;48.792;9.202;2023-02-08T11:23:29;1.40;99.90
9760;DHT22;4919;48.792;9.202;2023-02-08T11:26:32;1.50;99.90
9760;DHT22;4919;48.792;9.202;2023-02-08T11:29:20;1.60;99.90
9760;DHT22;4919;48.792;9.202;2023-02-08T11:32:18;1.70;99.90
9760;DHT22;4919;48.792;9.202;2023-02-08T11:35:19;1.70;99.90
9760;DHT22;4919;48.792;9.202;2023-02-08T11:38:04;1.30;99.90
9760;DHT22;4919;48.792;9.202;2023-02-08T11:40:49;1.30;99.90
9760;DHT22;4919;48.792;9.202;2023-02-08T11:43:34;1.30;99.90
9760;DHT22;4919;48.792;9.202;2023-02-08T11:46:22;1.30;99.90
9760;DHT22;4919;48.792;9.202;2023-02-08T11:49:21;1.80;99.90
9760;DHT22;4919;48.792;9.202;2023-02-08T11:52:22;1.90;99.90
9760;DHT22;4919;48.792;9.202;2023-02-08T12:01:04;2.10;99.90
9760;DHT22;4919;48.792;9.202;2023-02-08T12:03:50;1.90;99.90
9760;DHT22;4919;48.792;9.202;2023-02-08T12:10:22;1.80;99.90
9760;DHT22;4919;48.792;9.202;2023-02-08T12:13:40;1.90;99.90
9760;DHT22;4919;48.792;9.202;2023-02-08T12:23:18;1.80;99.90
9760;DHT22;4919;48.792;9.202;2023-02-08T12:26:31;1.80;99.90
9760;DHT22;4919;48.792;9.202;2023-02-08T12:29:40;1.80;99.90
9760;DHT22;4919;48.792;9.202;2023-02-08T12:32:30;1.90;99.90
9760;DHT22;4919;48.792;9.202;2023-02-08T12:35:49;2.00;99.90
9760;DHT22;4919;48.792;9.202;2023-02-08T12:38:48;1.90;99.90
9760;DHT22;4919;48.792;9.202;2023-02-08T12:41:46;2.10;99.90
9760;DHT22;4919;48.792;9.202;2023-02-08T12:45:02;2.20;99.90
9760;DHT22;4919;48.792;9.202;2023-02-08T12:48:10;2.20;99.90
9760;DHT22;4919;48.792;9.202;2023-02-08T12:51:07;2.30;99.90
9760;DHT22;4919;48.792;9.202;2023-02-08T12:54:02;2.30;99.90
9760;DHT22;4919;48.792;9.202;2023-02-08T12:56:49;2.50;99.90
9760;DHT22;4919;48.792;9.202;2023-02-08T12:59:43;2.50;99.90
9760;DHT22;4919;48.792;9.202;2023-02-08T13:02:38;2.40;99.90
9760;DHT22;4919;48.792;9.202;2023-02-08T13:05:30;2.60;99.90
9760;DHT22;4919;48.792;9.202;2023-02-08T13:08:35;2.50;99.90
9760;DHT22;4919;48.792;9.202;2023-02-08T13:11:38;2.40;99.90
9760;DHT22;4919;48.792;9.202;2023-02-08T13:14:34;2.50;99.90
9760;DHT22;4919;48.792;9.202;2023-02-08T13:17:25;2.60;99.90
9760;DHT22;4919;48.792;9.202;2023-02-08T13:20:40;2.60;99.90
9760;DHT22;4919;48.792;9.202;2023-02-08T13:29:02;2.60;99.90
9760;DHT22;4919;48.792;9.202;2023-02-08T13:31:52;2.80;99.90
9760;DHT22;4919;48.792;9.202;2023-02-08T13:34:49;2.70;99.90
9760;DHT22;4919;48.792;9.202;2023-02-08T13:37:35;2.60;99.90
9760;DHT22;4919;48.792;9.202;2023-02-08T13:40:23;2.50;99.90
9760;DHT22;4919;48.792;9.202;2023-02-08T13:43:32;2.50;99.90
9760;DHT22;4919;48.792;9.202;2023-02-08T13:46:19;2.40;99.90
9760;DHT22;4919;48.792;9.202;2023-02-08T13:49:05;2.40;99.90
9760;DHT22;4919;48.792;9.202;2023-02-08T13:51:52;2.40;99.90
9760;DHT22;4919;48.792;9.202;2023-02-08T13:54:37;2.40;99.90
9760;DHT22;4919;48.792;9.202;2023-02-08T14:00:35;2.30;99.90
9760;DHT22;4919;48.792;9.202;2023-02-08T14:06:28;2.40;99.90
9760;DHT22;4919;48.792;9.202;2023-02-08T14:18:00;2.20;99.90
9760;DHT22;4919;48.792;9.202;2023-02-08T14:21:00;2.20;99.90
9760;DHT22;4919;48.792;9.202;2023-02-08T14:24:05;2.10;99.90
9760;DHT22;4919;48.792;9.202;2023-02-08T14:30:04;2.00;99.90
9760;DHT22;4919;48.792;9.202;2023-02-08T14:35:56;1.90;99.90
9760;DHT22;4919;48.792;9.202;2023-02-08T14:38:55;1.80;99.90
9760;DHT22;4919;48.792;9.202;2023-02-08T14:41:52;1.70;99.90
9760;DHT22;4919;48.792;9.202;2023-02-08T14:50:17;1.70;99.90
9760;DHT22;4919;48.792;9.202;2023-02-08T14:56:04;1.60;99.90
9760;DHT22;4919;48.792;9.202;2023-02-08T14:59:11;1.60;99.90
9760;DHT22;4919;48.792;9.202;2023-02-08T15:02:00;1.50;99.90
9760;DHT22;4919;48.792;9.202;2023-02-08T15:04:45;1.50;99.90
9760;DHT22;4919;48.792;9.202;2023-02-08T15:07:46;1.50;99.90
9760;DHT22;4919;48.792;9.202;2023-02-08T15:10:33;1.40;99.90
9760;DHT22;4919;48.792;9.202;2023-02-08T15:13:22;1.30;99.90
9760;DHT22;4919;48.792;9.202;2023-02-08T15:16:10;1.30;99.90
9760;DHT22;4919;48.792;9.202;2023-02-08T15:18:55;1.20;99.90
9760;DHT22;4919;48.792;9.202;2023-02-08T15:21:40;1.10;99.90
9760;DHT22;4919;48.792;9.202;2023-02-08T15:24:25;1.10;99.90
9760;DHT22;4919;48.792;9.202;2023-02-08T15:27:25;1.00;99.90
9760;DHT22;4919;48.792;9.202;2023-02-08T15:33:14;0.90;99.90
9760;DHT22;4919;48.792;9.202;2023-02-08T15:36:02;0.80;99.90
9760;DHT22;4919;48.792;9.202;2023-02-08T15:38:48;0.70;99.90
9760;DHT22;4919;48.792;9.202;2023-02-08T15:41:33;0.70;99.90
9760;DHT22;4919;48.792;9.202;2023-02-08T15:44:41;0.60;99.90
9760;DHT22;4919;48.792;9.202;2023-02-08T15:47:31;0.50;99.90
9760;DHT22;4919;48.792;9.202;2023-02-08T15:50:19;0.40;99.90
9760;DHT22;4919;48.792;9.202;2023-02-08T15:53:05;0.30;99.90
9760;DHT22;4919;48.792;9.202;2023-02-08T15:55:54;0.30;99.90
9760;DHT22;4919;48.792;9.202;2023-02-08T15:58:43;0.20;99.90
9760;DHT22;4919;48.792;9.202;2023-02-08T16:01:30;0.20;99.90
9760;DHT22;4919;48.792;9.202;2023-02-08T16:04:15;0.10;99.90
9760;DHT22;4919;48.792;9.202;2023-02-08T16:06:59;0.00;99.90
9760;DHT22;4919;48.792;9.202;2023-02-08T16:09:46;-0.10;99.90
9760;DHT22;4919;48.792;9.202;2023-02-08T16:12:31;-0.20;99.90
9760;DHT22;4919;48.792;9.202;2023-02-08T16:15:41;-0.20;99.90
9760;DHT22;4919;48.792;9.202;2023-02-08T16:18:30;-0.30;99.90
9760;DHT22;4919;48.792;9.202;2023-02-08T16:21:20;-0.30;99.90
9760;DHT22;4919;48.792;9.202;2023-02-08T16:27:03;-0.40;99.90
9760;DHT22;4919;48.792;9.202;2023-02-08T16:29:49;-0.50;99.90
9760;DHT22;4919;48.792;9.202;2023-02-08T16:32:34;-0.40;99.90
9760;DHT22;4919;48.792;9.202;2023-02-08T16:35:27;-0.50;99.90
9760;DHT22;4919;48.792;9.202;2023-02-08T16:38:19;-0.50;99.90
9760;DHT22;4919;48.792;9.202;2023-02-08T16:41:08;-0.60;99.90
9760;DHT22;4919;48.792;9.202;2023-02-08T16:44:15;-0.60;99.90
9760;DHT22;4919;48.792;9.202;2023-02-08T16:47:01;-0.70;99.90
9760;DHT22;4919;48.792;9.202;2023-02-08T16:49:48;-0.70;99.90
9760;DHT22;4919;48.792;9.202;2023-02-08T16:52:33;-0.80;99.90
9760;DHT22;4919;48.792;9.202;2023-02-08T16:55:24;-0.80;99.90
9760;DHT22;4919;48.792;9.202;2023-02-08T16:58:13;-0.80;99.90
9760;DHT22;4919;48.792;9.202;2023-02-08T17:00:58;-0.80;99.90
9760;DHT22;4919;48.792;9.202;2023-02-08T17:03:43;-0.80;99.90
9760;DHT22;4919;48.792;9.202;2023-02-08T17:06:30;-0.80;99.90
9760;DHT22;4919;48.792;9.202;2023-02-08T17:09:16;-0.80;99.90
9760;DHT22;4919;48.792;9.202;2023-02-08T17:12:00;-0.80;99.90
9760;DHT22;4919;48.792;9.202;2023-02-08T17:14:45;-0.90;99.90
9760;DHT22;4919;48.792;9.202;2023-02-08T17:17:30;-0.90;99.90
9760;DHT22;4919;48.792;9.202;2023-02-08T17:23:08;-1.00;99.90
9760;DHT22;4919;48.792;9.202;2023-02-08T17:25:52;-1.00;99.90
9760;DHT22;4919;48.792;9.202;2023-02-08T17:28:37;-1.00;99.90
9760;DHT22;4919;48.792;9.202;2023-02-08T17:31:22;-1.00;99.90
9760;DHT22;4919;48.792;9.202;2023-02-08T17:34:07;-1.10;99.90
9760;DHT22;4919;48.792;9.202;2023-02-08T17:36:52;-1.10;99.90
9760;DHT22;4919;48.792;9.202;2023-02-08T17:39:37;-1.10;99.90
9760;DHT22;4919;48.792;9.202;2023-02-08T17:42:22;-1.20;99.90
9760;DHT22;4919;48.792;9.202;2023-02-08T17:45:07;-1.20;99.90
9760;DHT22;4919;48.792;9.202;2023-02-08T17:47:53;-1.20;99.90
9760;DHT22;4919;48.792;9.202;2023-02-08T17:50:41;-1.30;99.90
9760;DHT22;4919;48.792;9.202;2023-02-08T17:53:26;-1.30;99.90
9760;DHT22;4919;48.792;9.202;2023-02-08T17:56:19;-1.30;99.90
9760;DHT22;4919;48.792;9.202;2023-02-08T17:59:04;-1.40;99.90
9760;DHT22;4919;48.792;9.202;2023-02-08T18:01:48;-1.40;99.90
9760;DHT22;4919;48.792;9.202;2023-02-08T18:04:34;-1.40;99.90
9760;DHT22;4919;48.792;9.202;2023-02-08T18:07:19;-1.50;99.90
9760;DHT22;4919;48.792;9.202;2023-02-08T18:10:04;-1.50;99.90
9760;DHT22;4919;48.792;9.202;2023-02-08T18:12:49;-1.50;99.90
9760;DHT22;4919;48.792;9.202;2023-02-08T18:15:33;-1.60;99.90
9760;DHT22;4919;48.792;9.202;2023-02-08T18:18:18;-1.60;99.90
9760;DHT22;4919;48.792;9.202;2023-02-08T18:21:18;-1.50;99.90
9760;DHT22;4919;48.792;9.202;2023-02-08T18:24:04;-1.60;99.90
9760;DHT22;4919;48.792;9.202;2023-02-08T18:26:48;-1.60;99.90
9760;DHT22;4919;48.792;9.202;2023-02-08T18:29:33;-1.60;99.90
9760;DHT22;4919;48.792;9.202;2023-02-08T18:32:18;-1.60;99.90
9760;DHT22;4919;48.792;9.202;2023-02-08T18:35:03;-1.70;99.90
9760;DHT22;4919;48.792;9.202;2023-02-08T18:37:48;-1.70;99.90
9760;DHT22;4919;48.792;9.202;2023-02-08T18:40:33;-1.80;99.90
9760;DHT22;4919;48.792;9.202;2023-02-08T18:43:19;-1.80;99.90
9760;DHT22;4919;48.792;9.202;2023-02-08T18:46:06;-1.90;99.90
9760;DHT22;4919;48.792;9.202;2023-02-08T18:48:52;-1.90;99.90
9760;DHT22;4919;48.792;9.202;2023-02-08T18:51:36;-1.90;99.90
9760;DHT22;4919;48.792;9.202;2023-02-08T18:54:21;-2.00;99.90
9760;DHT22;4919;48.792;9.202;2023-02-08T18:57:06;-2.00;99.90
9760;DHT22;4919;48.792;9.202;2023-02-08T18:59:51;-2.10;99.90
9760;DHT22;4919;48.792;9.202;2023-02-08T19:02:36;-2.10;99.90
9760;DHT22;4919;48.792;9.202;2023-02-08T19:05:21;-2.20;99.90
9760;DHT22;4919;48.792;9.202;2023-02-08T19:08:06;-2.20;99.90
9760;DHT22;4919;48.792;9.202;2023-02-08T19:10:50;-2.30;99.90
9760;DHT22;4919;48.792;9.202;2023-02-08T19:13:35;-2.30;99.90
9760;DHT22;4919;48.792;9.202;2023-02-08T19:16:20;-2.30;99.90
9760;DHT22;4919;48.792;9.202;2023-02-08T19:19:06;-2.30;99.90
9760;DHT22;4919;48.792;9.202;2023-02-08T19:21:51;-2.30;99.90
9760;DHT22;4919;48.792;9.202;2023-02-08T19:24:35;-2.40;99.90
9760;DHT22;4919;48.792;9.202;2023-02-08T19:27:20;-2.40;99.90
9760;DHT22;4919;48.792;9.202;2023-02-08T19:30:05;-2.40;99.90
9760;DHT22;4919;48.792;9.202;2023-02-08T19:32:51;-2.50;99.90
9760;DHT22;4919;48.792;9.202;2023-02-08T19:35:37;-2.40;99.90
9760;DHT22;4919;48.792;9.202;2023-02-08T19:38:22;-2.50;99.90
9760;DHT22;4919;48.792;9.202;2023-02-08T19:41:10;-2.50;99.90
9760;DHT22;4919;48.792;9.202;2023-02-08T19:43:56;-2.50;99.90
9760;DHT22;4919;48.792;9.202;2023-02-08T19:46:47;-2.50;99.90
9760;DHT22;4919;48.792;9.202;2023-02-08T19:49:32;-2.50;99.90
9760;DHT22;4919;48.792;9.202;2023-02-08T19:52:17;-2.50;99.90
9760;DHT22;4919;48.792;9.202;2023-02-08T19:55:02;-2.50;99.90
9760;DHT22;4919;48.792;9.202;2023-02-08T19:57:47;-2.60;99.90
9760;DHT22;4919;48.792;9.202;2023-02-08T20:00:31;-2.60;99.90
9760;DHT22;4919;48.792;9.202;2023-02-08T20:03:17;-2.60;99.90
9760;DHT22;4919;48.792;9.202;2023-02-08T20:06:03;-2.60;99.90
9760;DHT22;4919;48.792;9.202;2023-02-08T20:08:48;-2.70;99.90
9760;DHT22;4919;48.792;9.202;2023-02-08T20:11:35;-2.70;99.90
9760;DHT22;4919;48.792;9.202;2023-02-08T20:14:20;-2.70;99.90
9760;DHT22;4919;48.792;9.202;2023-02-08T20:17:05;-2.80;99.90